Time;durP1;ratioP1;P1;durP2;ratioP2;P2;SDS_P1;SDS_P2;PMS_P1;PMS_P2;Temp;Humidity;BMP_temperature;BMP_pressure;BME280_temperature;BME280_humidity;BME280_pressure;Samples;Min_cycle;Max_cycle;Signal;HPM_P1;HPM_P2
2023/06/23 00:01:21;;;;;;;14.05;7.35;;;27.70;57.60;;;;;;5111240;28;20142;-69
2023/06/23 00:03:47;;;;;;;10.43;6.40;;;28.00;58.20;;;;;;5113049;28;20031;-69
2023/06/23 00:06:16;;;;;;;9.80;7.10;;;28.00;58.30;;;;;;5112364;28;20030;-69
2023/06/23 00:08:42;;;;;;;9.70;6.75;;;27.90;57.80;;;;;;5113402;28;20036;-69
2023/06/23 00:11:11;;;;;;;7.20;6.13;;;27.90;57.80;;;;;;5113234;28;20566;-68
2023/06/23 00:13:38;;;;;;;9.63;6.28;;;27.90;57.80;;;;;;5112201;28;20748;-69
2023/06/23 00:16:06;;;;;;;11.07;6.80;;;27.80;57.80;;;;;;5113075;28;20032;-69
2023/06/23 00:18:36;;;;;;;11.73;7.00;;;27.90;57.90;;;;;;5112111;28;20473;-68
2023/06/23 00:21:05;;;;;;;10.80;6.47;;;28.00;58.50;;;;;;5113258;28;20113;-69
2023/06/23 00:23:31;;;;;;;10.93;7.43;;;28.00;58.50;;;;;;5111788;28;20028;-68
2023/06/23 00:25:57;;;;;;;8.90;6.15;;;27.90;57.90;;;;;;5113194;28;20139;-69
2023/06/23 00:28:24;;;;;;;11.50;6.35;;;28.00;58.40;;;;;;5094232;28;20097;-69
2023/06/23 00:30:51;;;;;;;9.25;6.05;;;27.80;57.90;;;;;;5091108;28;20032;-68
2023/06/23 00:33:18;;;;;;;7.93;5.68;;;27.80;57.90;;;;;;5110246;28;20494;-69
2023/06/23 00:35:47;;;;;;;11.05;5.75;;;27.80;57.90;;;;;;5093198;28;20058;-69
2023/06/23 00:38:13;;;;;;;6.68;5.45;;;27.90;57.90;;;;;;5093266;28;20048;-69
2023/06/23 00:40:40;;;;;;;9.98;6.72;;;27.70;57.90;;;;;;5093499;28;20039;-69
2023/06/23 00:43:07;;;;;;;6.85;4.95;;;27.90;57.90;;;;;;5109706;28;20460;-69
2023/06/23 00:45:33;;;;;;;8.75;6.25;;;27.80;57.90;;;;;;5110153;28;20040;-69
2023/06/23 00:48:01;;;;;;;10.05;6.00;;;27.80;58.00;;;;;;5110051;28;20039;-68
2023/06/23 00:50:27;;;;;;;7.85;5.95;;;27.90;58.10;;;;;;5110271;28;20115;-68
2023/06/23 00:52:54;;;;;;;6.72;6.00;;;27.70;58.10;;;;;;5093144;28;20047;-69
2023/06/23 00:55:27;;;;;;;8.25;5.82;;;27.80;58.20;;;;;;5109858;28;20035;-69
2023/06/23 00:57:55;;;;;;;6.60;5.18;;;27.90;58.20;;;;;;5109718;28;20040;-69
2023/06/23 01:00:23;;;;;;;7.68;5.65;;;27.80;58.20;;;;;;5109994;28;20042;-68
2023/06/23 01:02:54;;;;;;;10.20;6.00;;;27.80;58.20;;;;;;5109922;28;20131;-69
2023/06/23 01:05:25;;;;;;;10.00;6.00;;;27.90;58.30;;;;;;5092928;28;20048;-69
2023/06/23 01:08:03;;;;;;;7.63;6.10;;;27.90;58.30;;;;;;5091954;28;20040;-69
2023/06/23 01:10:51;;;;;;;8.20;5.82;;;27.70;58.30;;;;;;5091819;28;20710;-69
2023/06/23 01:13:33;;;;;;;6.53;5.63;;;27.90;58.30;;;;;;5105713;28;20046;-69
2023/06/23 01:16:11;;;;;;;8.32;4.95;;;27.80;58.30;;;;;;5112221;28;20039;-69
2023/06/23 01:19:14;;;;;;;6.95;6.15;;;27.90;58.30;;;;;;5110865;28;20035;-69
2023/06/23 01:22:00;;;;;;;9.67;5.43;;;27.80;58.30;;;;;;5109384;28;20040;-69
2023/06/23 01:25:06;;;;;;;8.38;5.93;;;27.80;58.30;;;;;;5109375;28;20275;-69
2023/06/23 01:27:40;;;;;;;6.65;5.93;;;27.70;58.30;;;;;;5109655;28;20550;-69
2023/06/23 01:30:10;;;;;;;7.88;5.90;;;27.80;58.30;;;;;;5092252;28;20114;-69
2023/06/23 01:32:44;;;;;;;8.52;5.88;;;27.80;58.30;;;;;;5109519;28;20149;-70
2023/06/23 01:35:16;;;;;;;9.57;5.45;;;27.80;58.30;;;;;;5108986;28;20049;-70
2023/06/23 01:37:47;;;;;;;9.98;6.10;;;27.80;58.30;;;;;;5092520;28;20446;-70
2023/06/23 01:40:17;;;;;;;9.20;5.90;;;27.80;58.40;;;;;;5109350;28;20040;-69
2023/06/23 01:42:52;;;;;;;8.15;5.78;;;27.80;58.40;;;;;;5089203;28;20066;-70
2023/06/23 01:45:22;;;;;;;7.85;5.03;;;27.70;58.50;;;;;;5088639;28;20191;-70
2023/06/23 01:47:50;;;;;;;9.82;5.40;;;27.80;58.50;;;;;;5088864;28;20055;-70
2023/06/23 01:50:18;;;;;;;8.88;5.60;;;27.80;58.50;;;;;;5088547;28;20127;-70
2023/06/23 01:52:46;;;;;;;11.15;6.28;;;27.80;58.60;;;;;;5090122;28;20040;-69
2023/06/23 01:55:14;;;;;;;8.30;6.10;;;27.80;58.60;;;;;;5091108;28;20047;-70
2023/06/23 01:57:42;;;;;;;6.47;5.72;;;27.80;58.60;;;;;;5106808;28;20089;-70
2023/06/23 02:00:13;;;;;;;5.07;3.97;;;27.90;58.60;;;;;;5089597;28;20032;-70
2023/06/23 02:02:49;;;;;;;6.35;4.75;;;27.90;58.60;;;;;;5091223;28;20060;-70
2023/06/23 02:05:17;;;;;;;5.68;5.10;;;27.80;58.60;;;;;;5091127;28;20044;-70
2023/06/23 02:07:47;;;;;;;8.02;5.43;;;27.70;58.60;;;;;;5091448;28;20042;-69
2023/06/23 02:10:14;;;;;;;5.35;4.72;;;27.80;58.60;;;;;;5091150;28;20070;-70
2023/06/23 02:12:43;;;;;;;6.38;4.10;;;27.90;58.60;;;;;;5089826;28;20036;-70
2023/06/23 02:15:12;;;;;;;7.30;4.90;;;27.80;58.60;;;;;;5089470;28;20488;-70
2023/06/23 02:17:40;;;;;;;8.80;5.72;;;27.90;58.60;;;;;;5090077;28;20054;-70
2023/06/23 02:20:15;;;;;;;6.00;5.18;;;27.70;58.60;;;;;;5089914;28;20100;-69
2023/06/23 02:22:46;;;;;;;8.20;5.25;;;27.70;58.60;;;;;;5091166;28;20039;-70
2023/06/23 02:25:14;;;;;;;8.60;6.05;;;27.70;58.60;;;;;;5090854;28;20118;-70
2023/06/23 02:27:41;;;;;;;4.90;3.90;;;27.70;58.70;;;;;;5089495;28;20036;-70
2023/06/23 02:30:08;;;;;;;5.40;4.53;;;27.80;58.60;;;;;;5090994;28;20448;-70
2023/06/23 02:32:34;;;;;;;4.13;3.70;;;27.80;58.70;;;;;;5091063;28;20040;-70
2023/06/23 02:35:00;;;;;;;8.80;5.43;;;27.70;58.70;;;;;;5090804;28;20032;-70
2023/06/23 02:37:28;;;;;;;6.38;4.90;;;27.70;58.80;;;;;;5092109;28;20051;-70
2023/06/23 02:39:57;;;;;;;4.72;4.05;;;27.80;58.80;;;;;;5089550;28;20089;-70
2023/06/23 02:42:31;;;;;;;5.43;4.28;;;27.80;58.80;;;;;;5090758;28;20036;-70
2023/06/23 02:45:04;;;;;;;5.25;4.63;;;27.80;58.80;;;;;;5089570;28;20044;-70
2023/06/23 02:47:38;;;;;;;5.30;4.28;;;27.70;58.80;;;;;;5090874;28;20039;-70
2023/06/23 02:50:08;;;;;;;4.90;4.28;;;27.70;58.80;;;;;;5089671;28;20034;-70
2023/06/23 02:52:35;;;;;;;6.90;5.40;;;27.80;58.80;;;;;;5090478;28;20031;-70
2023/06/23 02:55:04;;;;;;;4.55;4.13;;;27.90;58.90;;;;;;5072500;28;20036;-70
2023/06/23 02:57:31;;;;;;;7.30;5.65;;;27.80;58.90;;;;;;5089493;28;20061;-70
2023/06/23 03:00:00;;;;;;;5.07;4.15;;;27.90;58.90;;;;;;5090877;28;20032;-70
2023/06/23 03:02:29;;;;;;;7.47;4.93;;;27.70;58.80;;;;;;5090566;28;20044;-70
2023/06/23 03:04:57;;;;;;;5.03;3.70;;;27.70;58.90;;;;;;5090439;28;20043;-70
2023/06/23 03:07:24;;;;;;;4.70;4.25;;;27.70;58.90;;;;;;5072345;28;20024;-70
2023/06/23 03:09:50;;;;;;;6.03;5.05;;;27.70;58.90;;;;;;5089526;28;20082;-70
2023/06/23 03:12:17;;;;;;;4.75;3.80;;;27.80;58.90;;;;;;5094193;28;20090;-70
2023/06/23 03:14:45;;;;;;;4.30;3.83;;;27.80;58.90;;;;;;5093843;28;20032;-67
2023/06/23 03:17:18;;;;;;;4.68;3.90;;;27.70;58.90;;;;;;5094156;28;20040;-70
2023/06/23 03:19:54;;;;;;;4.18;3.63;;;27.70;58.90;;;;;;5099047;28;20027;-70
2023/06/23 03:22:35;;;;;;;8.15;5.40;;;27.70;58.90;;;;;;5113326;28;20036;-70
2023/06/23 03:25:05;;;;;;;4.13;3.65;;;27.70;58.90;;;;;;5114432;28;20035;-69
2023/06/23 03:27:33;;;;;;;4.22;3.45;;;27.60;59.00;;;;;;5114336;28;20039;-70
2023/06/23 03:30:16;;;;;;;4.60;4.10;;;27.80;59.00;;;;;;5112761;28;20436;-70
2023/06/23 03:32:43;;;;;;;;;;;27.80;59.00;;;;;;5114823;28;20086;-69
2023/06/23 03:35:15;;;;;;;4.15;3.17;;;27.70;59.00;;;;;;5112751;28;20359;-70
2023/06/23 03:37:50;;;;;;;4.47;4.00;;;27.80;59.00;;;;;;5112655;28;20036;-70
2023/06/23 03:40:20;;;;;;;5.22;3.85;;;27.80;59.00;;;;;;5112769;28;20063;-69
2023/06/23 03:43:13;;;;;;;4.22;3.55;;;27.70;59.00;;;;;;5112463;28;20488;-69
2023/06/23 03:45:42;;;;;;;4.82;4.32;;;27.80;59.00;;;;;;5113880;28;20043;-69
2023/06/23 03:48:11;;;;;;;4.22;3.70;;;27.90;59.00;;;;;;5113692;28;20527;-69
2023/06/23 03:50:39;;;;;;;4.25;3.42;;;27.70;59.10;;;;;;5110773;28;20317;-67
2023/06/23 03:53:06;;;;;;;4.65;3.35;;;27.80;59.00;;;;;;5113660;28;20023;-66
2023/06/23 03:55:34;;;;;;;4.25;3.85;;;28.00;59.60;;;;;;5113808;28;20055;-66
2023/06/23 03:58:04;;;;;;;5.82;4.32;;;27.80;59.00;;;;;;5113889;28;20110;-66
2023/06/23 04:00:32;;;;;;;6.10;4.30;;;27.80;58.90;;;;;;5114012;28;20031;-67
2023/06/23 04:02:59;;;;;;;6.90;5.00;;;27.70;58.70;;;;;;5113683;28;20038;-67
2023/06/23 04:05:29;;;;;;;5.47;4.72;;;27.80;58.30;;;;;;5113237;28;20055;-67
2023/06/23 04:07:58;;;;;;;8.15;5.47;;;27.70;58.00;;;;;;5113463;28;20029;-67
2023/06/23 04:10:25;;;;;;;8.50;5.05;;;27.70;57.80;;;;;;5113679;27;20035;-67
2023/06/23 04:12:53;;;;;;;7.68;6.05;;;27.70;57.70;;;;;;5112093;28;20478;-68
2023/06/23 04:15:23;;;;;;;8.48;5.88;;;27.70;57.40;;;;;;5113169;28;20114;-68
2023/06/23 04:17:51;;;;;;;8.82;5.63;;;27.60;57.20;;;;;;5113270;28;20089;-69
2023/06/23 04:20:19;;;;;;;7.10;6.40;;;27.80;59.10;;;;;;5113233;28;20085;-69
2023/06/23 04:22:47;;;;;;;7.53;5.70;;;28.30;62.20;;;;;;5112932;28;20035;-69
2023/06/23 04:25:15;;;;;;;8.27;6.07;;;28.70;62.10;;;;;;5113196;28;20063;-68
2023/06/23 04:27:43;;;;;;;8.38;6.05;;;28.70;59.80;;;;;;5113185;28;20487;-69
2023/06/23 04:30:11;;;;;;;12.82;7.75;;;28.50;58.40;;;;;;5113206;28;20114;-68
2023/06/23 04:32:39;;;;;;;8.70;6.88;;;28.30;58.30;;;;;;5112989;28;20035;-68
2023/06/23 04:35:05;;;;;;;10.00;7.65;;;28.30;58.50;;;;;;5112706;28;20487;-68
2023/06/23 04:37:40;;;;;;;12.45;7.28;;;28.30;58.40;;;;;;5113051;28;20381;-68
2023/06/23 04:40:20;;;;;;;8.68;7.10;;;28.10;58.70;;;;;;5112832;28;20031;-68
2023/06/23 04:42:52;;;;;;;8.02;6.32;;;28.10;58.80;;;;;;5112764;28;20043;-68
2023/06/23 04:45:24;;;;;;;7.65;6.47;;;28.00;59.00;;;;;;5111458;28;20043;-68
2023/06/23 04:47:57;;;;;;;8.05;6.75;;;28.00;59.00;;;;;;5102027;28;20502;-68
2023/06/23 04:50:27;;;;;;;8.48;6.72;;;28.10;59.20;;;;;;5092294;28;20109;-68
2023/06/23 04:52:55;;;;;;;11.23;6.82;;;28.00;59.10;;;;;;5092362;28;20486;-69
2023/06/23 04:55:29;;;;;;;8.30;6.70;;;27.90;59.10;;;;;;5091692;28;20032;-69
2023/06/23 04:57:57;;;;;;;7.55;6.13;;;28.00;59.80;;;;;;5092400;28;20044;-68
2023/06/23 05:00:25;;;;;;;6.35;5.65;;;28.00;59.80;;;;;;5092219;28;20028;-70
2023/06/23 05:02:55;;;;;;;8.10;6.28;;;28.00;60.00;;;;;;5092045;28;20036;-68
2023/06/23 05:05:24;;;;;;;6.88;5.95;;;28.00;59.80;;;;;;5090681;28;20039;-69
2023/06/23 05:07:53;;;;;;;10.10;6.05;;;28.10;59.70;;;;;;5092068;28;20036;-68
2023/06/23 05:10:21;;;;;;;12.75;6.72;;;28.00;60.00;;;;;;5092076;28;20111;-68
2023/06/23 05:12:52;;;;;;;7.63;5.75;;;28.10;59.70;;;;;;5091912;28;20596;-68
2023/06/23 05:15:20;;;;;;;10.98;6.20;;;28.00;58.30;;;;;;5109583;28;20047;-68
2023/06/23 05:17:49;;;;;;;8.02;6.57;;;28.00;57.60;;;;;;5109394;28;20043;-68
2023/06/23 05:20:20;;;;;;;10.90;7.05;;;28.00;56.70;;;;;;5109760;28;20079;-69
2023/06/23 05:22:49;;;;;;;11.10;6.68;;;28.10;56.40;;;;;;5109548;28;20077;-69
2023/06/23 05:25:18;;;;;;;10.43;7.45;;;28.00;56.50;;;;;;5109416;28;20039;-69
2023/06/23 05:27:45;;;;;;;10.30;6.85;;;28.20;56.60;;;;;;5120423;27;20031;-69
2023/06/23 05:30:17;;;;;;;8.32;6.20;;;28.30;56.50;;;;;;5130092;27;20537;-68
2023/06/23 05:32:44;;;;;;;8.68;6.70;;;28.30;56.60;;;;;;5129375;27;20035;-69
2023/06/23 05:35:11;;;;;;;10.05;8.13;;;28.30;58.50;;;;;;5129372;27;20099;-69
2023/06/23 05:37:39;;;;;;;9.93;7.47;;;28.20;58.20;;;;;;5129770;27;20126;-69
2023/06/23 05:40:08;;;;;;;9.82;7.45;;;28.40;58.60;;;;;;5129602;27;20050;-69
2023/06/23 05:42:34;;;;;;;11.55;7.40;;;28.40;59.70;;;;;;5129132;27;20031;-68
2023/06/23 05:45:01;;;;;;;9.75;7.97;;;28.30;59.60;;;;;;5130012;27;20525;-70
2023/06/23 05:47:35;;;;;;;11.50;8.13;;;28.30;60.40;;;;;;5093295;28;20047;-68
2023/06/23 05:50:11;;;;;;;11.50;6.97;;;28.70;59.20;;;;;;5112540;28;20027;-68
2023/06/23 05:52:45;;;;;;;11.93;7.30;;;28.50;56.70;;;;;;5111952;28;20114;-68
2023/06/23 05:55:12;;;;;;;7.78;6.63;;;28.70;56.60;;;;;;5111713;28;20035;-69
2023/06/23 05:57:40;;;;;;;15.10;7.07;;;28.60;56.20;;;;;;5108607;28;20027;-70
2023/06/23 06:00:13;;;;;;;7.90;6.43;;;28.50;60.40;;;;;;5090046;28;20036;-70
2023/06/23 06:02:43;;;;;;;9.90;6.75;;;28.60;57.50;;;;;;5090308;28;20032;-68
2023/06/23 06:05:14;;;;;;;9.05;7.25;;;28.80;56.10;;;;;;5091325;28;20036;-69
2023/06/23 06:07:41;;;;;;;8.40;6.45;;;28.60;56.60;;;;;;5091734;28;20039;-68
2023/06/23 06:10:09;;;;;;;9.20;6.45;;;28.70;56.50;;;;;;5106159;28;20024;-66
2023/06/23 06:12:37;;;;;;;12.35;7.00;;;28.50;55.80;;;;;;5109047;28;20039;-66
2023/06/23 06:15:06;;;;;;;11.65;6.95;;;28.70;55.40;;;;;;5111488;28;20123;-66
2023/06/23 06:17:33;;;;;;;8.82;7.07;;;28.60;55.10;;;;;;5111411;28;20050;-67
2023/06/23 06:20:04;;;;;;;10.50;7.28;;;28.70;54.80;;;;;;5111438;28;20482;-67
2023/06/23 06:22:33;;;;;;;7.68;6.47;;;28.60;54.70;;;;;;5111443;28;20779;-69
2023/06/23 06:25:03;;;;;;;11.02;7.43;;;28.60;54.80;;;;;;5106837;28;20074;-67
2023/06/23 06:27:29;;;;;;;8.20;6.88;;;28.60;54.90;;;;;;5089805;28;20046;-69
2023/06/23 06:29:56;;;;;;;8.73;6.50;;;28.50;54.80;;;;;;5091371;28;20024;-67
2023/06/23 06:32:25;;;;;;;9.38;6.88;;;28.70;55.00;;;;;;5089661;28;20479;-66
2023/06/23 06:34:52;;;;;;;12.70;7.30;;;28.60;55.10;;;;;;5071640;28;20116;-67
2023/06/23 06:37:20;;;;;;;14.13;7.90;;;28.60;55.20;;;;;;5090777;28;20044;-67
2023/06/23 06:39:47;;;;;;;8.18;6.20;;;28.70;55.40;;;;;;5090731;28;20028;-68
2023/06/23 06:42:13;;;;;;;11.73;7.35;;;28.60;55.50;;;;;;5096427;28;20047;-68
2023/06/23 06:44:41;;;;;;;9.60;6.75;;;28.70;56.00;;;;;;5112607;28;20062;-67
2023/06/23 06:47:10;;;;;;;11.98;7.32;;;28.70;55.90;;;;;;5115330;28;20071;-70
2023/06/23 06:49:39;;;;;;;9.23;6.65;;;28.70;56.10;;;;;;5115336;28;20106;-70
2023/06/23 06:52:06;;;;;;;8.15;6.10;;;28.80;55.90;;;;;;5114793;28;20055;-70
2023/06/23 06:54:33;;;;;;;9.48;6.22;;;28.60;56.10;;;;;;5115171;27;20089;-70
2023/06/23 06:56:59;;;;;;;14.85;7.15;;;28.70;56.10;;;;;;5114704;28;20036;-69
2023/06/23 06:59:25;;;;;;;11.73;6.35;;;28.70;56.10;;;;;;5096679;28;20039;-69
2023/06/23 07:01:53;;;;;;;12.00;6.60;;;28.70;56.30;;;;;;5094496;28;20039;-69
2023/06/23 07:04:20;;;;;;;10.60;6.53;;;28.70;56.40;;;;;;5091901;28;20487;-70
2023/06/23 07:06:52;;;;;;;10.15;6.82;;;28.70;56.30;;;;;;5093857;28;20061;-69
2023/06/23 07:09:18;;;;;;;9.18;6.68;;;28.70;56.40;;;;;;5094284;28;20036;-68
2023/06/23 07:11:48;;;;;;;10.30;7.15;;;28.70;56.50;;;;;;5094182;28;20036;-69
2023/06/23 07:14:14;;;;;;;11.23;6.75;;;28.80;56.70;;;;;;5094177;28;20046;-69
2023/06/23 07:16:40;;;;;;;10.68;6.50;;;28.70;56.70;;;;;;5099705;28;20058;-69
2023/06/23 07:19:06;;;;;;;10.02;7.38;;;28.70;56.80;;;;;;5114600;28;20027;-70
2023/06/23 07:21:32;;;;;;;13.68;6.88;;;28.70;56.80;;;;;;5114378;28;20490;-71
2023/06/23 07:23:58;;;;;;;9.93;7.30;;;28.90;56.80;;;;;;5114942;28;20061;-72
2023/06/23 07:26:24;;;;;;;8.20;6.22;;;28.80;56.90;;;;;;5114377;28;20118;-71
2023/06/23 07:28:50;;;;;;;11.60;7.05;;;28.70;56.80;;;;;;5113210;28;20035;-68
2023/06/23 07:31:16;;;;;;;9.68;6.05;;;28.70;57.00;;;;;;5114324;28;20425;-69
2023/06/23 07:33:42;;;;;;;9.35;6.90;;;28.60;57.00;;;;;;5114105;28;20035;-68
2023/06/23 07:36:08;;;;;;;7.88;6.53;;;28.60;56.90;;;;;;5114038;28;20137;-69
2023/06/23 07:38:34;;;;;;;8.80;6.45;;;28.60;57.10;;;;;;5114259;28;20627;-69
2023/06/23 07:41:00;;;;;;;8.63;6.65;;;28.50;57.20;;;;;;5114166;28;20036;-69
2023/06/23 07:43:26;;;;;;;7.13;6.43;;;28.50;57.50;;;;;;5114114;27;20052;-69
2023/06/23 07:45:52;;;;;;;10.18;7.35;;;28.50;57.60;;;;;;5113982;28;20048;-69
2023/06/23 07:48:19;;;;;;;9.40;6.68;;;28.60;57.80;;;;;;5113829;28;20551;-67
2023/06/23 07:50:46;;;;;;;13.60;6.32;;;28.60;57.90;;;;;;5113665;28;20035;-69
2023/06/23 07:53:12;;;;;;;10.75;6.50;;;28.60;57.90;;;;;;5112176;28;20085;-70
2023/06/23 07:55:38;;;;;;;8.00;5.78;;;28.60;57.70;;;;;;5109729;28;20027;-69
2023/06/23 07:58:04;;;;;;;11.57;6.40;;;28.60;57.90;;;;;;5113350;28;20039;-72
2023/06/23 08:00:30;;;;;;;10.90;6.40;;;28.40;58.00;;;;;;5113779;28;20031;-69
2023/06/23 08:02:57;;;;;;;54.25;42.58;;;28.70;57.40;;;;;;5113569;28;20031;-69
2023/06/23 08:05:23;;;;;;;71.53;53.20;;;28.60;59.30;;;;;;5113654;28;20085;-68
2023/06/23 08:07:49;;;;;;;62.88;28.20;;;28.60;60.70;;;;;;5112134;28;20031;-68
2023/06/23 08:10:15;;;;;;;12.70;9.30;;;28.50;60.30;;;;;;5113579;28;20058;-69
2023/06/23 08:12:41;;;;;;;32.10;19.98;;;28.50;59.00;;;;;;5113544;28;20487;-69
2023/06/23 08:15:08;;;;;;;44.35;21.88;;;28.50;58.10;;;;;;5113449;28;20031;-68
2023/06/23 08:17:34;;;;;;;42.25;18.88;;;28.60;57.90;;;;;;5097090;28;20118;-68
2023/06/23 08:20:00;;;;;;;47.00;20.20;;;28.50;57.90;;;;;;5092942;28;20043;-69
2023/06/23 08:22:26;;;;;;;44.28;18.55;;;28.60;57.80;;;;;;5091520;28;20451;-68
2023/06/23 08:24:52;;;;;;;45.08;18.65;;;28.60;57.80;;;;;;5093024;28;20111;-67
2023/06/23 08:27:19;;;;;;;21.70;11.43;;;28.60;57.70;;;;;;5090438;28;20598;-68
2023/06/23 08:29:45;;;;;;;29.23;12.00;;;28.60;57.90;;;;;;5110007;28;20694;-67
2023/06/23 08:32:11;;;;;;;19.05;9.93;;;28.60;58.10;;;;;;5110190;28;20051;-72
2023/06/23 08:34:38;;;;;;;23.20;11.27;;;28.60;58.00;;;;;;5110514;28;20487;-69
2023/06/23 08:37:04;;;;;;;16.63;14.00;;;28.60;58.10;;;;;;5110519;28;20062;-68
2023/06/23 08:39:31;;;;;;;9.85;7.68;;;28.60;58.20;;;;;;5110648;28;20896;-68
2023/06/23 08:41:58;;;;;;;9.18;7.57;;;28.60;58.20;;;;;;5110462;28;20043;-68
2023/06/23 08:44:30;;;;;;;11.85;7.43;;;28.60;58.10;;;;;;5093084;28;20092;-69
2023/06/23 08:46:58;;;;;;;9.03;8.13;;;28.60;58.10;;;;;;5093339;28;20780;-68
2023/06/23 08:49:27;;;;;;;9.93;8.07;;;28.70;66.80;;;;;;5093125;28;20043;-68
2023/06/23 08:51:53;;;;;;;12.65;9.45;;;28.70;64.40;;;;;;5110256;28;20419;-67
2023/06/23 08:54:19;;;;;;;11.68;7.75;;;28.60;63.60;;;;;;5109866;28;20074;-67
2023/06/23 08:56:46;;;;;;;10.02;7.65;;;28.60;62.90;;;;;;5092971;28;20585;-68
2023/06/23 08:59:12;;;;;;;10.90;7.82;;;28.50;62.30;;;;;;5110054;28;20039;-67
2023/06/23 09:01:38;;;;;;;9.82;8.35;;;28.60;62.10;;;;;;5094243;28;20124;-68
2023/06/23 09:04:04;;;;;;;11.10;8.65;;;28.70;61.50;;;;;;5106697;28;20031;-67
2023/06/23 09:06:30;;;;;;;10.85;8.25;;;28.60;61.40;;;;;;5112257;28;20080;-67
2023/06/23 09:08:58;;;;;;;8.63;7.13;;;28.70;61.40;;;;;;5112258;28;20487;-69
2023/06/23 09:11:25;;;;;;;12.30;8.27;;;28.70;60.80;;;;;;5112110;28;20039;-71
2023/06/23 09:13:53;;;;;;;9.65;7.35;;;28.70;61.50;;;;;;5112229;28;20544;-69
2023/06/23 09:16:20;;;;;;;8.38;6.88;;;28.70;61.10;;;;;;5106683;28;20035;-72
2023/06/23 09:18:47;;;;;;;45.08;16.38;;;28.80;61.90;;;;;;5090551;28;20038;-73
2023/06/23 09:21:13;;;;;;;123.28;53.53;;;29.20;63.60;;;;;;5103458;28;20028;-68
2023/06/23 09:23:55;;;;;;;50.20;19.63;;;29.50;61.80;;;;;;5112127;28;20043;-68
2023/06/23 09:26:21;;;;;;;38.25;18.80;;;29.70;61.00;;;;;;5111901;28;20038;-69
2023/06/23 09:28:49;;;;;;;23.85;12.27;;;29.70;59.50;;;;;;5110640;28;20027;-69
2023/06/23 09:31:16;;;;;;;25.05;12.50;;;29.70;58.00;;;;;;5093971;28;20031;-68
2023/06/23 09:33:52;;;;;;;23.25;12.48;;;29.70;57.30;;;;;;5111778;28;20027;-69
2023/06/23 09:36:19;;;;;;;27.77;12.73;;;29.50;57.50;;;;;;5111692;28;20039;-68
2023/06/23 09:38:48;;;;;;;26.05;14.48;;;29.70;57.70;;;;;;5110130;28;20034;-68
2023/06/23 09:41:17;;;;;;;25.23;14.27;;;29.70;57.70;;;;;;5110798;28;20034;-68
2023/06/23 09:43:47;;;;;;;30.95;11.95;;;29.50;57.80;;;;;;5110247;28;20047;-68
2023/06/23 09:46:16;;;;;;;27.10;13.93;;;29.80;57.60;;;;;;5111839;28;20062;-67
2023/06/23 09:48:44;;;;;;;24.48;12.98;;;29.60;57.80;;;;;;5111597;28;20490;-66
2023/06/23 09:51:11;;;;;;;21.00;11.95;;;29.60;57.80;;;;;;5108586;28;20024;-67
2023/06/23 09:53:40;;;;;;;24.00;12.95;;;29.60;57.80;;;;;;5111618;28;20047;-68
2023/06/23 09:56:12;;;;;;;18.95;11.30;;;29.60;57.90;;;;;;5111581;28;20036;-68
2023/06/23 09:58:40;;;;;;;22.35;11.15;;;29.50;57.90;;;;;;5111601;28;20035;-67
2023/06/23 10:01:09;;;;;;;26.25;11.55;;;29.50;57.90;;;;;;5111729;28;20034;-67
2023/06/23 10:04:02;;;;;;;23.02;11.02;;;29.60;57.90;;;;;;5111500;28;20063;-68
2023/06/23 10:06:34;;;;;;;;;;;29.50;57.80;;;;;;5068987;28;20131;-70
2023/06/23 10:09:03;;;;;;;17.80;10.15;;;29.50;57.60;;;;;;5068418;28;19922;-67
2023/06/23 10:11:30;;;;;;;20.08;10.38;;;29.60;57.60;;;;;;5051832;28;20053;-67
2023/06/23 10:14:02;;;;;;;15.60;9.85;;;29.50;57.60;;;;;;5068306;28;20117;-67
2023/06/23 10:16:29;;;;;;;10.87;8.53;;;29.60;57.70;;;;;;5061882;28;20033;-67
2023/06/23 10:18:55;;;;;;;15.70;10.23;;;29.40;57.80;;;;;;5048417;28;20167;-67
2023/06/23 10:21:22;;;;;;;16.88;9.55;;;29.50;57.80;;;;;;5052742;28;20063;-68
2023/06/23 10:23:50;;;;;;;18.20;10.93;;;29.60;59.60;;;;;;4992995;28;20129;-67
2023/06/23 10:26:17;;;;;;;16.23;9.68;;;29.80;60.10;;;;;;4993091;28;20051;-66
2023/06/23 10:28:46;;;;;;;17.10;9.85;;;30.00;60.80;;;;;;4992644;28;20050;-67
2023/06/23 10:31:13;;;;;;;20.60;11.45;;;30.30;62.20;;;;;;4976996;28;20046;-66
2023/06/23 10:33:41;;;;;;;18.25;11.90;;;30.90;61.60;;;;;;4976442;28;20581;-67
2023/06/23 10:36:11;;;;;;;15.15;10.82;;;30.80;60.70;;;;;;4982052;28;20421;-67
2023/06/23 10:38:44;;;;;;;18.80;10.35;;;30.60;58.40;;;;;;5012368;28;20745;-68
2023/06/23 10:41:12;;;;;;;13.20;8.65;;;30.40;56.10;;;;;;5012370;28;20030;-68
2023/06/23 10:43:41;;;;;;;14.43;9.23;;;30.10;57.30;;;;;;5051163;28;20799;-68
2023/06/23 10:46:07;;;;;;;12.40;9.25;;;30.20;57.40;;;;;;5071905;28;20043;-69
2023/06/23 10:48:34;;;;;;;16.65;8.82;;;30.00;57.50;;;;;;5072081;28;20083;-68
2023/06/23 10:51:01;;;;;;;13.98;8.48;;;30.10;57.50;;;;;;5072092;28;20036;-68
2023/06/23 10:53:32;;;;;;;13.45;8.98;;;29.90;57.00;;;;;;5072040;28;20040;-68
2023/06/23 10:55:59;;;;;;;14.05;8.77;;;29.90;57.10;;;;;;5114201;28;20057;-68
2023/06/23 10:58:27;;;;;;;12.25;9.18;;;30.00;57.60;;;;;;5115097;28;20444;-69
2023/06/23 11:00:53;;;;;;;12.85;8.55;;;29.90;57.10;;;;;;5114916;28;20033;-68
2023/06/23 11:03:36;;;;;;;13.65;8.60;;;29.90;57.20;;;;;;5115111;28;20122;-68
2023/06/23 11:06:07;;;;;;;10.77;8.55;;;29.90;57.30;;;;;;5114727;27;20032;-68
2023/06/23 11:08:38;;;;;;;14.73;8.02;;;29.90;57.20;;;;;;5114769;28;20092;-69
2023/06/23 11:11:05;;;;;;;12.10;8.15;;;29.70;57.30;;;;;;5097591;28;20468;-70
2023/06/23 11:13:43;;;;;;;12.55;7.75;;;29.80;57.30;;;;;;5092016;28;20085;-68
2023/06/23 11:16:38;;;;;;;12.60;7.95;;;29.70;57.50;;;;;;5098012;28;20455;-68
2023/06/23 11:19:05;;;;;;;12.52;7.22;;;29.70;57.50;;;;;;5113802;28;20036;-68
2023/06/23 11:21:33;;;;;;;11.57;7.68;;;29.60;58.00;;;;;;5114334;28;20406;-69
2023/06/23 11:24:17;;;;;;;10.25;7.80;;;29.50;57.80;;;;;;5114419;28;20038;-69
2023/06/23 11:26:51;;;;;;;10.70;7.47;;;29.50;57.80;;;;;;5114331;28;20024;-69
2023/06/23 11:29:22;;;;;;;14.48;6.85;;;29.60;58.00;;;;;;5114050;28;20123;-68
2023/06/23 11:32:19;;;;;;;10.57;7.13;;;29.50;58.10;;;;;;5113095;28;20035;-69
2023/06/23 11:35:01;;;;;;;11.30;6.97;;;29.60;58.10;;;;;;5112990;28;20039;-69
2023/06/23 11:37:30;;;;;;;10.87;7.33;;;29.50;58.20;;;;;;5114065;28;20051;-68
2023/06/23 11:39:57;;;;;;;14.05;7.20;;;29.40;58.20;;;;;;5113874;28;20475;-69
2023/06/23 11:42:23;;;;;;;10.98;6.90;;;29.40;58.20;;;;;;5114259;28;20032;-69
2023/06/23 11:44:49;;;;;;;8.38;6.60;;;29.30;58.20;;;;;;5113952;27;20048;-68
2023/06/23 11:47:16;;;;;;;8.93;6.75;;;29.40;58.20;;;;;;5112643;28;20084;-68
2023/06/23 11:49:42;;;;;;;10.10;6.97;;;29.40;58.30;;;;;;5113636;28;20024;-69
2023/06/23 11:52:09;;;;;;;8.10;6.18;;;29.20;58.40;;;;;;5104247;27;20064;-68
2023/06/23 11:54:35;;;;;;;11.85;7.18;;;29.30;58.60;;;;;;5093722;28;20027;-68
2023/06/23 11:57:03;;;;;;;9.45;6.60;;;29.30;58.70;;;;;;5093553;28;20502;-69
2023/06/23 11:59:39;;;;;;;8.82;6.68;;;29.40;58.80;;;;;;5093395;28;20032;-68
2023/06/23 12:02:06;;;;;;;10.73;7.13;;;29.40;58.90;;;;;;5093649;28;20067;-69
2023/06/23 12:04:33;;;;;;;13.00;7.32;;;29.20;58.90;;;;;;5093088;28;20073;-68
2023/06/23 12:07:00;;;;;;;8.68;6.57;;;29.30;59.00;;;;;;5093248;28;20064;-68
2023/06/23 12:09:30;;;;;;;9.57;6.78;;;29.40;59.00;;;;;;5092948;28;20550;-69
2023/06/23 12:11:58;;;;;;;9.20;6.43;;;29.30;59.10;;;;;;5093113;28;20039;-70
2023/06/23 12:14:33;;;;;;;10.98;6.78;;;29.30;59.20;;;;;;5091669;28;20040;-68
2023/06/23 12:17:09;;;;;;;11.07;6.45;;;29.20;59.20;;;;;;5102337;28;20050;-68
2023/06/23 12:19:37;;;;;;;12.95;7.22;;;29.20;59.30;;;;;;5113355;28;20016;-69
2023/06/23 12:22:04;;;;;;;11.00;6.07;;;29.20;59.20;;;;;;5113517;28;20419;-68
2023/06/23 12:24:30;;;;;;;12.32;6.22;;;29.20;59.10;;;;;;5113213;28;20028;-68
2023/06/23 12:27:00;;;;;;;10.48;6.57;;;29.10;59.40;;;;;;5111786;28;20107;-68
2023/06/23 12:29:29;;;;;;;14.32;6.78;;;29.10;60.60;;;;;;5112947;28;20028;-68
2023/06/23 12:31:57;;;;;;;9.75;6.60;;;29.20;60.60;;;;;;5127410;27;20449;-67
2023/06/23 12:34:34;;;;;;;9.38;6.38;;;29.20;60.40;;;;;;5111538;28;20027;-68
2023/06/23 12:37:05;;;;;;;9.07;6.18;;;29.20;60.30;;;;;;5112753;28;20043;-68
2023/06/23 12:39:34;;;;;;;11.88;6.07;;;29.20;60.20;;;;;;5112689;28;20100;-68
2023/06/23 12:42:01;;;;;;;11.65;6.43;;;29.00;60.10;;;;;;5111921;28;20074;-68
2023/06/23 12:44:30;;;;;;;9.45;5.90;;;29.10;60.10;;;;;;5112481;28;20559;-67
2023/06/23 12:46:57;;;;;;;8.38;5.45;;;29.10;60.00;;;;;;5112851;28;20118;-68
2023/06/23 12:49:31;;;;;;;6.85;5.30;;;29.10;60.00;;;;;;5111239;28;20023;-68
2023/06/23 12:51:58;;;;;;;8.77;5.40;;;29.10;59.90;;;;;;5112596;28;20042;-68